Time;durP1;ratioP1;P1;durP2;ratioP2;P2;SDS_P1;SDS_P2;PMS_P1;PMS_P2;Temp;Humidity;BMP_temperature;BMP_pressure;BME280_temperature;BME280_humidity;BME280_pressure;Samples;Min_cycle;Max_cycle;Signal;HPM_P1;HPM_P2
2021/05/01 00:01:20;;;;;;;11.18;10.07;;;;;;;;;;5094455;28;20081;-72
2021/05/01 00:03:46;;;;;;;11.60;10.52;;;;;;;;;;5094229;28;20020;-72
2021/05/01 00:06:11;;;;;;;11.38;9.95;;;;;;;;;;5094240;28;20031;-72
2021/05/01 00:08:37;;;;;;;11.18;10.05;;;;;;;;;;5094256;28;20016;-72
2021/05/01 00:11:03;;;;;;;11.30;10.10;;;;;;;;;;5093276;28;20107;-72
2021/05/01 00:13:32;;;;;;;11.23;10.18;;;;;;;;;;5094238;28;20016;-72
2021/05/01 00:15:58;;;;;;;12.90;11.38;;;;;;;;;;5093022;28;20035;-71
2021/05/01 00:18:24;;;;;;;11.57;10.43;;;;;;;;;;5093133;28;20024;-72
2021/05/01 00:20:49;;;;;;;11.55;10.45;;;;;;;;;;5094214;28;20081;-72
2021/05/01 00:23:16;;;;;;;11.30;10.15;;;;;;;;;;5093265;28;20466;-73
2021/05/01 00:25:41;;;;;;;11.80;10.68;;;;;;;;;;5093889;28;20028;-72
2021/05/01 00:28:07;;;;;;;11.27;10.15;;;;;;;;;;5093985;28;20023;-72
2021/05/01 00:30:32;;;;;;;12.20;11.00;;;;;;;;;;5093849;28;20032;-72
2021/05/01 00:32:58;;;;;;;10.80;9.70;;;;;;;;;;5093804;28;20107;-73
2021/05/01 00:35:24;;;;;;;11.88;10.68;;;;;;;;;;5093725;28;20081;-72
2021/05/01 00:37:49;;;;;;;13.27;10.98;;;;;;;;;;5092180;28;20020;-72
2021/05/01 00:40:15;;;;;;;11.73;10.52;;;;;;;;;;5093745;28;20028;-72
2021/05/01 00:42:41;;;;;;;11.57;10.45;;;;;;;;;;5092137;28;20125;-72
2021/05/01 00:45:07;;;;;;;11.52;10.43;;;;;;;;;;5092267;28;20074;-72
2021/05/01 00:47:32;;;;;;;11.25;9.98;;;;;;;;;;5092245;28;20077;-72
2021/05/01 00:49:58;;;;;;;11.95;10.75;;;;;;;;;;5092827;28;20020;-72
2021/05/01 00:52:23;;;;;;;13.23;10.70;;;;;;;;;;5093537;28;20012;-72
2021/05/01 00:54:49;;;;;;;12.32;11.13;;;;;;;;;;5092212;28;20039;-73
2021/05/01 00:57:14;;;;;;;12.43;11.07;;;;;;;;;;5093261;28;20028;-72
2021/05/01 00:59:40;;;;;;;11.63;10.45;;;;;;;;;;5092105;28;20038;-72
2021/05/01 01:02:05;;;;;;;12.57;11.27;;;;;;;;;;5092393;28;20458;-73
2021/05/01 01:04:31;;;;;;;12.60;11.27;;;;;;;;;;5093561;28;20040;-73
2021/05/01 01:06:57;;;;;;;12.07;10.77;;;;;;;;;;5092013;28;20031;-72
2021/05/01 01:09:23;;;;;;;13.18;11.60;;;;;;;;;;5093460;28;20073;-72
2021/05/01 01:11:48;;;;;;;11.98;10.88;;;;;;;;;;5093319;28;20036;-72
2021/05/01 01:14:14;;;;;;;13.38;11.98;;;;;;;;;;5092169;28;20043;-73
2021/05/01 01:16:44;;;;;;;13.07;9.95;;;;;;;;;;5093241;28;20525;-73
2021/05/01 01:19:09;;;;;;;13.48;12.02;;;;;;;;;;5093195;28;20028;-73
2021/05/01 01:21:41;;;;;;;12.40;11.15;;;;;;;;;;5093167;28;20039;-72
2021/05/01 01:24:07;;;;;;;12.65;10.63;;;;;;;;;;5093306;28;20028;-72
2021/05/01 01:26:36;;;;;;;11.77;10.57;;;;;;;;;;5093442;28;20026;-71
2021/05/01 01:29:01;;;;;;;12.68;11.48;;;;;;;;;;5093127;28;20564;-71
2021/05/01 01:31:27;;;;;;;11.30;10.20;;;;;;;;;;5091506;28;20054;-71
2021/05/01 01:33:52;;;;;;;11.50;10.32;;;;;;;;;;5093548;28;20035;-71
2021/05/01 01:36:18;;;;;;;11.20;10.20;;;;;;;;;;5093053;28;20048;-71
2021/05/01 01:38:43;;;;;;;11.52;10.32;;;;;;;;;;5092942;28;20429;-72
2021/05/01 01:41:10;;;;;;;11.60;10.40;;;;;;;;;;5091595;28;20480;-72
2021/05/01 01:43:37;;;;;;;11.88;10.68;;;;;;;;;;5092572;28;20093;-71
2021/05/01 01:46:02;;;;;;;12.13;10.95;;;;;;;;;;5091913;28;20089;-71
2021/05/01 01:48:28;;;;;;;11.88;10.68;;;;;;;;;;5093211;28;20028;-71
2021/05/01 01:50:53;;;;;;;10.90;9.85;;;;;;;;;;5093029;28;20506;-71
2021/05/01 01:53:20;;;;;;;9.88;8.98;;;;;;;;;;5092830;28;20055;-71
2021/05/01 01:55:45;;;;;;;9.77;8.88;;;;;;;;;;5091509;28;20027;-71
2021/05/01 01:58:12;;;;;;;10.77;9.68;;;;;;;;;;5093008;28;20035;-72
2021/05/01 02:00:37;;;;;;;10.45;9.52;;;;;;;;;;5092542;28;20020;-71
2021/05/01 02:03:03;;;;;;;10.32;9.32;;;;;;;;;;5096644;28;20061;-71
2021/05/01 02:05:28;;;;;;;9.50;8.63;;;;;;;;;;5096641;28;20024;-71
2021/05/01 02:07:54;;;;;;;9.38;8.48;;;;;;;;;;5095514;28;20077;-71
2021/05/01 02:10:20;;;;;;;9.02;8.23;;;;;;;;;;5095155;28;20089;-71
2021/05/01 02:12:45;;;;;;;9.05;8.25;;;;;;;;;;5096295;28;20069;-73
2021/05/01 02:15:13;;;;;;;9.00;8.18;;;;;;;;;;5096528;28;20107;-73
2021/05/01 02:17:39;;;;;;;10.60;9.52;;;;;;;;;;5095211;28;20036;-73
2021/05/01 02:20:06;;;;;;;9.10;8.25;;;;;;;;;;5095391;28;20035;-72
2021/05/01 02:22:32;;;;;;;10.05;9.05;;;;;;;;;;5096464;28;20389;-72
2021/05/01 02:24:57;;;;;;;9.02;8.23;;;;;;;;;;5094810;28;20020;-72
2021/05/01 02:27:23;;;;;;;8.63;7.82;;;;;;;;;;5096364;28;20024;-72
2021/05/01 02:29:48;;;;;;;7.93;7.13;;;;;;;;;;5096341;28;20031;-72
2021/05/01 02:32:13;;;;;;;8.82;8.02;;;;;;;;;;5096041;28;20083;-74
2021/05/01 02:34:39;;;;;;;9.25;7.75;;;;;;;;;;5096029;28;20015;-74
2021/05/01 02:37:06;;;;;;;9.32;8.57;;;;;;;;;;5096116;28;20036;-74
2021/05/01 02:39:32;;;;;;;8.70;8.00;;;;;;;;;;5096110;28;20037;-74
2021/05/01 02:41:58;;;;;;;8.90;8.00;;;;;;;;;;5095772;28;20028;-74
2021/05/01 02:44:23;;;;;;;9.10;8.35;;;;;;;;;;5094845;28;20038;-75
2021/05/01 02:46:48;;;;;;;9.38;8.57;;;;;;;;;;5094597;28;20367;-75
2021/05/01 02:49:14;;;;;;;9.02;8.23;;;;;;;;;;5095808;28;20091;-74
2021/05/01 02:51:39;;;;;;;8.60;7.90;;;;;;;;;;5095966;28;20115;-74
2021/05/01 02:54:05;;;;;;;9.65;8.75;;;;;;;;;;5095901;28;20335;-73
2021/05/01 02:56:30;;;;;;;9.32;8.45;;;;;;;;;;5095816;28;20093;-73
2021/05/01 02:58:56;;;;;;;9.43;8.23;;;;;;;;;;5095692;28;20016;-73
2021/05/01 03:01:21;;;;;;;8.68;7.88;;;;;;;;;;5094375;28;20039;-72
2021/05/01 03:03:46;;;;;;;8.95;8.05;;;;;;;;;;5094341;28;20027;-72
2021/05/01 03:06:15;;;;;;;9.50;8.57;;;;;;;;;;5094156;28;20032;-71
2021/05/01 03:08:40;;;;;;;8.57;7.78;;;;;;;;;;5077451;28;20068;-71
2021/05/01 03:11:07;;;;;;;8.63;7.93;;;;;;;;;;5095699;28;20415;-71
2021/05/01 03:13:32;;;;;;;8.73;7.93;;;;;;;;;;5076515;28;20043;-71
2021/05/01 03:15:58;;;;;;;8.07;7.35;;;;;;;;;;5095493;28;20455;-72
2021/05/01 03:18:23;;;;;;;7.68;7.07;;;;;;;;;;5095398;28;20055;-72
2021/05/01 03:20:49;;;;;;;7.50;6.88;;;;;;;;;;5093494;28;20028;-72
2021/05/01 03:23:15;;;;;;;8.10;7.40;;;;;;;;;;5093913;28;20035;-72
2021/05/01 03:25:40;;;;;;;7.05;6.30;;;;;;;;;;5094143;28;20028;-72
2021/05/01 03:28:06;;;;;;;7.63;6.93;;;;;;;;;;5095001;28;20020;-72
2021/05/01 03:30:31;;;;;;;7.72;6.97;;;;;;;;;;5094853;28;20020;-72
2021/05/01 03:32:56;;;;;;;7.43;6.68;;;;;;;;;;5093943;28;20039;-72
2021/05/01 03:35:22;;;;;;;7.78;7.15;;;;;;;;;;5094804;28;20035;-72
2021/05/01 03:37:48;;;;;;;6.93;6.32;;;;;;;;;;5094864;28;20027;-72
2021/05/01 03:40:15;;;;;;;7.78;7.10;;;;;;;;;;5094718;28;20392;-72
2021/05/01 03:42:40;;;;;;;8.45;7.57;;;;;;;;;;5094391;28;20035;-73
2021/05/01 03:45:07;;;;;;;7.75;7.05;;;;;;;;;;5094658;28;20393;-73
2021/05/01 03:47:32;;;;;;;8.23;7.53;;;;;;;;;;5094587;28;20076;-73
2021/05/01 03:49:58;;;;;;;6.97;6.38;;;;;;;;;;5094765;28;20111;-73
2021/05/01 03:52:23;;;;;;;7.85;7.15;;;;;;;;;;5094592;28;20024;-71
2021/05/01 03:54:49;;;;;;;7.05;6.35;;;;;;;;;;5093222;28;20026;-72
2021/05/01 03:57:14;;;;;;;7.82;7.18;;;;;;;;;;5093167;28;20543;-72
2021/05/01 03:59:40;;;;;;;8.25;7.45;;;;;;;;;;5094438;28;20020;-73
2021/05/01 04:02:05;;;;;;;7.60;6.93;;;;;;;;;;5094351;28;20027;-72
2021/05/01 04:04:31;;;;;;;7.80;7.15;;;;;;;;;;5094362;28;20028;-72
2021/05/01 04:06:57;;;;;;;7.43;6.72;;;;;;;;;;5094542;28;20069;-72
2021/05/01 04:09:22;;;;;;;9.43;8.52;;;;;;;;;;5094508;28;20112;-72
2021/05/01 04:11:47;;;;;;;10.20;9.25;;;;;;;;;;5076313;28;20089;-72
2021/05/01 04:14:13;;;;;;;10.45;9.50;;;;;;;;;;5092879;28;20119;-72
2021/05/01 04:16:38;;;;;;;11.07;10.02;;;;;;;;;;5094042;28;20028;-71
2021/05/01 04:19:04;;;;;;;10.60;9.60;;;;;;;;;;5094115;28;20070;-72
2021/05/01 04:21:29;;;;;;;10.50;9.50;;;;;;;;;;5094058;28;20027;-73
2021/05/01 04:23:55;;;;;;;11.98;10.80;;;;;;;;;;5094264;28;20039;-73
2021/05/01 04:26:21;;;;;;;12.18;11.07;;;;;;;;;;5093792;28;20437;-73
2021/05/01 04:28:56;;;;;;;21.25;18.98;;;;;;;;;;5092754;28;20390;-73
2021/05/01 04:31:21;;;;;;;26.52;23.95;;;;;;;;;;5093948;28;20024;-73
2021/05/01 04:33:47;;;;;;;19.15;16.95;;;;;;;;;;5093793;28;20098;-74
2021/05/01 04:36:13;;;;;;;15.35;12.68;;;;;;;;;;5093892;28;20039;-74
2021/05/01 04:38:39;;;;;;;13.23;11.68;;;;;;;;;;5094388;28;20024;-73
2021/05/01 04:41:04;;;;;;;13.05;11.63;;;;;;;;;;5093056;28;20185;-74
2021/05/01 04:43:31;;;;;;;13.20;12.00;;;;;;;;;;5093620;28;20051;-74
2021/05/01 04:45:58;;;;;;;16.33;13.40;;;;;;;;;;5092453;28;20069;-74
2021/05/01 04:48:23;;;;;;;10.85;9.77;;;;;;;;;;5093792;28;20386;-74
2021/05/01 04:50:49;;;;;;;16.45;14.00;;;;;;;;;;5093865;28;20023;-74
2021/05/01 04:53:15;;;;;;;12.55;11.25;;;;;;;;;;5092326;28;20020;-73
2021/05/01 04:55:40;;;;;;;11.82;10.63;;;;;;;;;;5093702;28;20435;-72
2021/05/01 04:58:06;;;;;;;11.75;10.65;;;;;;;;;;5093557;28;20051;-73
2021/05/01 05:00:31;;;;;;;11.52;10.45;;;;;;;;;;5092026;28;20028;-73
2021/05/01 05:02:58;;;;;;;14.75;13.20;;;;;;;;;;5093821;28;20027;-73
2021/05/01 05:05:23;;;;;;;16.15;14.45;;;;;;;;;;5092111;28;20508;-73
2021/05/01 05:07:49;;;;;;;36.83;31.55;;;;;;;;;;5093471;28;20047;-73
2021/05/01 05:10:14;;;;;;;15.60;14.20;;;;;;;;;;5092999;28;20103;-72
2021/05/01 05:12:41;;;;;;;13.20;12.00;;;;;;;;;;5093374;28;20017;-73
2021/05/01 05:15:07;;;;;;;13.50;12.18;;;;;;;;;;5093372;28;20529;-73
2021/05/01 05:17:32;;;;;;;18.75;16.70;;;;;;;;;;5093274;28;20107;-73
2021/05/01 05:19:58;;;;;;;22.70;20.40;;;;;;;;;;5093224;28;20025;-73
2021/05/01 05:22:24;;;;;;;16.13;14.48;;;;;;;;;;5093168;28;20012;-72
2021/05/01 05:24:50;;;;;;;13.35;12.05;;;;;;;;;;5092763;28;20028;-71
2021/05/01 05:27:15;;;;;;;13.45;12.05;;;;;;;;;;5093181;28;20054;-72
2021/05/01 05:29:50;;;;;;;12.45;11.23;;;;;;;;;;5090351;28;20103;-72
2021/05/01 05:32:16;;;;;;;11.32;10.20;;;;;;;;;;5089100;28;20054;-72
2021/05/01 05:34:43;;;;;;;13.48;12.13;;;;;;;;;;5090882;28;20051;-72
2021/05/01 05:37:09;;;;;;;14.20;12.80;;;;;;;;;;5096264;28;20115;-74
2021/05/01 05:39:35;;;;;;;14.10;11.82;;;;;;;;;;5097237;28;20046;-73
2021/05/01 05:42:01;;;;;;;13.80;12.00;;;;;;;;;;5095528;28;20024;-75
2021/05/01 05:44:26;;;;;;;13.55;12.23;;;;;;;;;;5096985;28;20504;-75
2021/05/01 05:46:51;;;;;;;11.18;10.07;;;;;;;;;;5097435;28;20508;-75
2021/05/01 05:49:17;;;;;;;13.02;11.38;;;;;;;;;;5097318;28;20043;-74
2021/05/01 05:51:42;;;;;;;12.52;11.32;;;;;;;;;;5097366;28;20032;-74
2021/05/01 05:54:08;;;;;;;13.30;12.00;;;;;;;;;;5097231;28;20024;-75
2021/05/01 05:56:34;;;;;;;13.88;11.27;;;;;;;;;;5096945;28;20032;-75
2021/05/01 05:59:00;;;;;;;11.45;10.25;;;;;;;;;;5095540;28;20099;-74
2021/05/01 06:01:30;;;;;;;13.60;11.60;;;;;;;;;;5096849;28;20032;-73
2021/05/01 06:03:57;;;;;;;12.45;11.25;;;;;;;;;;5096332;28;20024;-73
2021/05/01 06:06:44;;;;;;;13.50;12.27;;;;;;;;;;5095710;28;20027;-73
2021/05/01 06:09:11;;;;;;;12.73;11.43;;;;;;;;;;5097103;28;20033;-73
2021/05/01 06:11:37;;;;;;;12.13;10.82;;;;;;;;;;5095714;28;20027;-73
2021/05/01 06:14:04;;;;;;;13.52;12.25;;;;;;;;;;5095468;28;20463;-73
2021/05/01 06:16:30;;;;;;;13.27;11.88;;;;;;;;;;5096913;28;20013;-73
2021/05/01 06:18:56;;;;;;;13.73;11.65;;;;;;;;;;5095056;28;20043;-73
2021/05/01 06:21:21;;;;;;;12.88;11.63;;;;;;;;;;5095535;28;20024;-74
2021/05/01 06:23:49;;;;;;;13.27;11.98;;;;;;;;;;5096557;28;20420;-73
2021/05/01 06:26:15;;;;;;;14.55;11.68;;;;;;;;;;5095900;28;20393;-73
2021/05/01 06:28:41;;;;;;;14.15;11.30;;;;;;;;;;5094783;28;20031;-73
2021/05/01 06:31:07;;;;;;;12.98;11.65;;;;;;;;;;5096063;28;20024;-73
2021/05/01 06:33:39;;;;;;;13.82;12.32;;;;;;;;;;5096280;28;20048;-73
2021/05/01 06:36:06;;;;;;;16.83;11.98;;;;;;;;;;5096215;28;20031;-73
2021/05/01 06:38:34;;;;;;;14.75;12.45;;;;;;;;;;5096261;28;20023;-73
2021/05/01 06:41:04;;;;;;;13.73;11.68;;;;;;;;;;5094752;28;20477;-73
2021/05/01 06:43:31;;;;;;;;;;;;;;;;;;5096087;28;20044;-74
2021/05/01 06:46:00;;;;;;;14.15;12.73;;;;;;;;;;5094989;28;19957;-73
2021/05/01 06:48:28;;;;;;;12.80;11.50;;;;;;;;;;5095008;28;20024;-73
2021/05/01 06:50:56;;;;;;;12.98;11.68;;;;;;;;;;5094613;28;20489;-73
2021/05/01 06:53:31;;;;;;;13.50;12.20;;;;;;;;;;5094676;28;20070;-73
2021/05/01 06:56:01;;;;;;;13.43;11.73;;;;;;;;;;5095822;28;20416;-74
2021/05/01 06:58:27;;;;;;;13.35;11.93;;;;;;;;;;5095835;28;20039;-74
2021/05/01 07:00:53;;;;;;;14.55;12.60;;;;;;;;;;5096230;28;20032;-73
2021/05/01 07:03:20;;;;;;;16.50;14.00;;;;;;;;;;5096134;28;20027;-73
2021/05/01 07:05:47;;;;;;;24.65;21.83;;;;;;;;;;5095659;28;20092;-74
2021/05/01 07:08:13;;;;;;;16.45;14.23;;;;;;;;;;5095868;28;20474;-74
2021/05/01 07:10:39;;;;;;;16.25;14.55;;;;;;;;;;5095806;28;20081;-74
2021/05/01 07:13:05;;;;;;;16.60;14.20;;;;;;;;;;5094784;28;20026;-74
2021/05/01 07:15:30;;;;;;;16.77;15.07;;;;;;;;;;5095246;28;20070;-74
2021/05/01 07:17:56;;;;;;;22.10;17.38;;;;;;;;;;5095656;28;20032;-74
2021/05/01 07:20:22;;;;;;;17.15;14.35;;;;;;;;;;5095587;28;20406;-74
2021/05/01 07:22:51;;;;;;;16.77;14.93;;;;;;;;;;5094245;28;20024;-73
2021/05/01 07:25:18;;;;;;;16.85;15.10;;;;;;;;;;5093987;28;20461;-74
2021/05/01 07:28:00;;;;;;;16.50;14.30;;;;;;;;;;5095327;28;20020;-74
2021/05/01 07:30:28;;;;;;;28.27;23.25;;;;;;;;;;5095341;28;20095;-74
2021/05/01 07:32:55;;;;;;;19.08;14.80;;;;;;;;;;5095088;28;20508;-74
2021/05/01 07:35:24;;;;;;;21.38;15.38;;;;;;;;;;5094004;28;20097;-75
2021/05/01 07:37:50;;;;;;;15.27;12.88;;;;;;;;;;5095037;28;20070;-74
2021/05/01 07:40:20;;;;;;;17.88;14.20;;;;;;;;;;5094853;28;20439;-75
2021/05/01 07:42:48;;;;;;;14.65;13.00;;;;;;;;;;5094228;28;20028;-74
2021/05/01 07:45:14;;;;;;;16.98;14.07;;;;;;;;;;5095118;28;20074;-75
2021/05/01 07:47:41;;;;;;;18.65;15.10;;;;;;;;;;5093388;28;20055;-72
2021/05/01 07:50:07;;;;;;;19.08;14.75;;;;;;;;;;5095135;28;20517;-72
2021/05/01 07:52:35;;;;;;;37.78;21.65;;;;;;;;;;5094373;28;20066;-72
2021/05/01 07:55:00;;;;;;;57.38;31.52;;;;;;;;;;5094510;28;20046;-72
2021/05/01 07:57:26;;;;;;;209.43;115.60;;;;;;;;;;5093325;28;20024;-72
2021/05/01 07:59:52;;;;;;;59.17;35.17;;;;;;;;;;5094563;28;20359;-73
2021/05/01 08:02:18;;;;;;;108.40;60.15;;;;;;;;;;5095073;28;20035;-72
2021/05/01 08:04:51;;;;;;;86.47;58.30;;;;;;;;;;5094447;28;20027;-72
2021/05/01 08:07:18;;;;;;;97.13;65.25;;;;;;;;;;5094682;28;20028;-72
2021/05/01 08:09:45;;;;;;;23.52;17.45;;;;;;;;;;5093396;28;20049;-72
2021/05/01 08:12:11;;;;;;;68.78;45.60;;;;;;;;;;5093598;28;20039;-72
2021/05/01 08:14:37;;;;;;;46.83;33.10;;;;;;;;;;5094243;28;20416;-72
2021/05/01 08:17:02;;;;;;;55.60;41.42;;;;;;;;;;5094585;28;20085;-72
2021/05/01 08:19:28;;;;;;;34.17;27.77;;;;;;;;;;5093312;28;20016;-72
2021/05/01 08:21:55;;;;;;;24.55;21.85;;;;;;;;;;5094249;28;20028;-72
2021/05/01 08:24:21;;;;;;;66.30;43.20;;;;;;;;;;5094039;28;20016;-73
2021/05/01 08:26:47;;;;;;;28.08;20.73;;;;;;;;;;5094066;28;20115;-72
2021/05/01 08:29:13;;;;;;;18.23;14.25;;;;;;;;;;5094169;28;20039;-73
2021/05/01 08:31:41;;;;;;;13.98;11.02;;;;;;;;;;5092928;28;20501;-72
2021/05/01 08:34:07;;;;;;;14.25;11.55;;;;;;;;;;5092732;28;20526;-72
2021/05/01 08:36:33;;;;;;;14.82;12.43;;;;;;;;;;5093989;28;20077;-72
2021/05/01 08:39:00;;;;;;;18.25;16.33;;;;;;;;;;5092650;28;20019;-72
2021/05/01 08:41:26;;;;;;;25.80;23.02;;;;;;;;;;5093893;28;20450;-72
2021/05/01 08:44:01;;;;;;;41.90;37.13;;;;;;;;;;5093679;28;20075;-72
2021/05/01 08:46:28;;;;;;;42.08;37.58;;;;;;;;;;5093522;28;20080;-73
2021/05/01 08:48:54;;;;;;;24.17;19.58;;;;;;;;;;5093767;28;20024;-73
2021/05/01 08:51:25;;;;;;;51.22;40.63;;;;;;;;;;5093980;28;20016;-72
2021/05/01 08:53:52;;;;;;;21.38;18.20;;;;;;;;;;5093687;28;20028;-73
2021/05/01 08:56:18;;;;;;;58.97;41.28;;;;;;;;;;5093557;28;20016;-72
2021/05/01 08:58:43;;;;;;;45.13;35.70;;;;;;;;;;5092199;28;20058;-73
2021/05/01 09:01:18;;;;;;;33.70;25.35;;;;;;;;;;5093516;28;20030;-73
2021/05/01 09:03:44;;;;;;;28.13;17.73;;;;;;;;;;5093543;28;20031;-72
2021/05/01 09:06:10;;;;;;;40.65;24.65;;;;;;;;;;5093164;28;20102;-72
2021/05/01 09:08:53;;;;;;;21.20;17.67;;;;;;;;;;5093155;28;20115;-72
2021/05/01 09:11:41;;;;;;;16.65;14.15;;;;;;;;;;5092762;28;20024;-71
2021/05/01 09:14:13;;;;;;;22.42;17.60;;;;;;;;;;5093386;28;20032;-71
2021/05/01 09:16:40;;;;;;;21.38;16.52;;;;;;;;;;5093914;28;20039;-71
2021/05/01 09:19:06;;;;;;;25.55;21.33;;;;;;;;;;5093688;28;20070;-73
2021/05/01 09:21:33;;;;;;;26.70;22.30;;;;;;;;;;5093314;28;20494;-72
2021/05/01 09:23:58;;;;;;;23.35;19.25;;;;;;;;;;5092365;28;20030;-72
2021/05/01 09:26:40;;;;;;;22.08;18.95;;;;;;;;;;5093143;28;20119;-73
2021/05/01 09:29:06;;;;;;;22.15;18.67;;;;;;;;;;5093820;28;20026;-71
2021/05/01 09:31:42;;;;;;;21.55;18.13;;;;;;;;;;5093553;28;20100;-72
2021/05/01 09:34:08;;;;;;;19.08;15.98;;;;;;;;;;5093332;28;20467;-72
2021/05/01 09:36:35;;;;;;;19.98;17.85;;;;;;;;;;5093173;28;20077;-72
2021/05/01 09:39:06;;;;;;;20.73;17.98;;;;;;;;;;5093271;28;20025;-70
2021/05/01 09:41:35;;;;;;;20.40;16.90;;;;;;;;;;5093198;28;20099;-71
2021/05/01 09:44:04;;;;;;;22.58;18.88;;;;;;;;;;5093237;28;20044;-71
2021/05/01 09:46:31;;;;;;;24.70;20.33;;;;;;;;;;5093248;28;20118;-72
2021/05/01 09:49:11;;;;;;;20.35;18.15;;;;;;;;;;5093122;28;20012;-71
2021/05/01 09:51:44;;;;;;;29.58;24.88;;;;;;;;;;5092963;28;20109;-71
2021/05/01 09:54:11;;;;;;;20.30;16.52;;;;;;;;;;5092988;28;20031;-71
2021/05/01 09:56:37;;;;;;;46.78;39.08;;;;;;;;;;5092811;28;20086;-72
2021/05/01 09:59:03;;;;;;;22.52;17.00;;;;;;;;;;5092837;28;20096;-70
2021/05/01 10:01:28;;;;;;;20.58;16.02;;;;;;;;;;5092362;28;20444;-71
2021/05/01 10:04:15;;;;;;;20.52;16.65;;;;;;;;;;5091773;28;20474;-71
2021/05/01 10:06:43;;;;;;;22.67;17.50;;;;;;;;;;5092931;28;20047;-71
2021/05/01 10:09:08;;;;;;;20.48;17.00;;;;;;;;;;5092802;28;20020;-71
2021/05/01 10:11:35;;;;;;;20.17;16.60;;;;;;;;;;5092165;28;20025;-72
2021/05/01 10:14:01;;;;;;;25.35;17.60;;;;;;;;;;5092817;28;20468;-72
2021/05/01 10:16:29;;;;;;;20.90;17.90;;;;;;;;;;5092810;28;20025;-72
2021/05/01 10:19:05;;;;;;;17.92;15.10;;;;;;;;;;5092711;28;20024;-72
2021/05/01 10:21:33;;;;;;;18.77;15.80;;;;;;;;;;5092958;28;20101;-72
2021/05/01 10:23:58;;;;;;;18.83;15.88;;;;;;;;;;5096457;28;20474;-73
2021/05/01 10:26:24;;;;;;;21.42;16.42;;;;;;;;;;5097009;28;20091;-72
2021/05/01 10:28:59;;;;;;;17.40;15.55;;;;;;;;;;5096606;28;20020;-72
2021/05/01 10:31:24;;;;;;;20.63;16.33;;;;;;;;;;5096485;28;20099;-72
2021/05/01 10:33:50;;;;;;;18.45;16.45;;;;;;;;;;5097086;28;20099;-73
2021/05/01 10:36:20;;;;;;;22.13;19.50;;;;;;;;;;5095000;28;20032;-74
2021/05/01 10:38:58;;;;;;;17.95;14.88;;;;;;;;;;5095994;28;20069;-75
2021/05/01 10:41:24;;;;;;;18.17;16.35;;;;;;;;;;5095054;28;20457;-67
2021/05/01 10:43:54;;;;;;;18.17;15.88;;;;;;;;;;5096081;28;20044;-66
2021/05/01 10:46:33;;;;;;;17.67;15.77;;;;;;;;;;5096197;28;20048;-67
2021/05/01 10:49:00;;;;;;;19.35;16.27;;;;;;;;;;5094805;28;20466;-66
2021/05/01 10:51:29;;;;;;;17.08;15.27;;;;;;;;;;5096325;28;20457;-65
2021/05/01 10:54:10;;;;;;;24.98;20.35;;;;;;;;;;5096229;28;20386;-66
2021/05/01 10:56:36;;;;;;;20.83;18.52;;;;;;;;;;5096053;28;20028;-66
2021/05/01 10:59:08;;;;;;;24.40;21.85;;;;;;;;;;5095885;28;20082;-66
2021/05/01 11:01:46;;;;;;;24.13;20.15;;;;;;;;;;5095619;28;20028;-66
2021/05/01 11:04:15;;;;;;;22.83;19.75;;;;;;;;;;5096188;28;20036;-65
2021/05/01 11:06:58;;;;;;;33.97;21.58;;;;;;;;;;5095820;28;20035;-65
2021/05/01 11:09:29;;;;;;;19.48;16.90;;;;;;;;;;5095682;28;20032;-64
2021/05/01 11:11:58;;;;;;;19.35;16.50;;;;;;;;;;5095312;28;20028;-65
2021/05/01 11:14:26;;;;;;;628.58;391.73;;;;;;;;;;5095700;28;20069;-65
2021/05/01 11:17:04;;;;;;;104.00;84.50;;;;;;;;;;5095557;28;20027;-65
2021/05/01 11:19:31;;;;;;;414.77;331.10;;;;;;;;;;5094305;28;20084;-65
2021/05/01 11:21:57;;;;;;;382.60;250.15;;;;;;;;;;5095631;28;20027;-65
2021/05/01 11:24:24;;;;;;;369.48;245.52;;;;;;;;;;5095743;28;20024;-66
2021/05/01 11:26:50;;;;;;;27.92;23.00;;;;;;;;;;5094229;28;20035;-65
2021/05/01 11:29:17;;;;;;;24.80;22.27;;;;;;;;;;5095095;28;20488;-65
2021/05/01 11:31:43;;;;;;;31.05;23.38;;;;;;;;;;5094938;28;20108;-65
2021/05/01 11:34:10;;;;;;;24.98;19.98;;;;;;;;;;5093027;28;20404;-65
2021/05/01 11:36:42;;;;;;;22.83;18.80;;;;;;;;;;5095140;28;20073;-65
2021/05/01 11:39:08;;;;;;;35.47;26.67;;;;;;;;;;5095040;28;20032;-66
2021/05/01 11:41:34;;;;;;;40.08;28.48;;;;;;;;;;5095389;28;20085;-65
2021/05/01 11:43:59;;;;;;;28.80;21.08;;;;;;;;;;5094740;28;20414;-65
2021/05/01 11:46:30;;;;;;;28.85;21.55;;;;;;;;;;5094887;28;20126;-66
2021/05/01 11:49:01;;;;;;;33.60;23.90;;;;;;;;;;5094913;28;20028;-66
2021/05/01 11:51:44;;;;;;;27.27;20.20;;;;;;;;;;5094161;28;20044;-66
2021/05/01 11:54:30;;;;;;;28.63;20.70;;;;;;;;;;5094281;28;20027;-67
2021/05/01 11:57:16;;;;;;;23.90;19.35;;;;;;;;;;5086831;28;20032;-66
2021/05/01 11:59:43;;;;;;;16.70;13.73;;;;;;;;;;5072788;28;20032;-66
2021/05/01 12:02:08;;;;;;;36.67;25.77;;;;;;;;;;5094611;28;20027;-65
2021/05/01 12:04:47;;;;;;;24.08;20.17;;;;;;;;;;5094509;28;20027;-65
2021/05/01 12:07:39;;;;;;;40.72;26.10;;;;;;;;;;5094575;28;20074;-66
2021/05/01 12:10:06;;;;;;;32.35;21.95;;;;;;;;;;5069819;28;20097;-65
2021/05/01 12:12:33;;;;;;;54.85;35.40;;;;;;;;;;5094532;28;20016;-66
2021/05/01 12:15:05;;;;;;;614.90;252.32;;;;;;;;;;5092943;28;20027;-66
2021/05/01 12:17:31;;;;;;;626.50;285.00;;;;;;;;;;5094473;28;20027;-66
2021/05/01 12:20:16;;;;;;;44.95;31.52;;;;;;;;;;5094519;28;20008;-66
2021/05/01 12:22:41;;;;;;;840.50;385.75;;;;;;;;;;5093139;28;20024;-66
2021/05/01 12:25:25;;;;;;;135.88;65.95;;;;;;;;;;5094232;28;20466;-66
2021/05/01 12:27:52;;;;;;;59.38;43.30;;;;;;;;;;5094728;28;20032;-67
2021/05/01 12:30:39;;;;;;;31.10;25.95;;;;;;;;;;5093869;28;20023;-66
2021/05/01 12:33:20;;;;;;;129.55;54.10;;;;;;;;;;5092678;28;20028;-66
2021/05/01 12:35:46;;;;;;;30.75;23.95;;;;;;;;;;5094159;28;20089;-67
2021/05/01 12:38:12;;;;;;;438.52;208.93;;;;;;;;;;5075971;28;20478;-66
2021/05/01 12:40:38;;;;;;;541.25;281.23;;;;;;;;;;5094192;28;20496;-67
2021/05/01 12:43:23;;;;;;;43.63;29.33;;;;;;;;;;5093762;28;20177;-66
2021/05/01 12:45:48;;;;;;;27.42;22.52;;;;;;;;;;5092901;28;20439;-67
2021/05/01 12:48:34;;;;;;;37.53;28.52;;;;;;;;;;5093714;28;20062;-66
2021/05/01 12:51:23;;;;;;;435.85;217.38;;;;;;;;;;5093560;28;20028;-65
2021/05/01 12:53:49;;;;;;;25.10;19.33;;;;;;;;;;5088040;28;20036;-65
2021/05/01 12:56:19;;;;;;;43.03;28.73;;;;;;;;;;5093655;28;20273;-65
2021/05/01 12:58:45;;;;;;;44.78;28.33;;;;;;;;;;5093566;28;20541;-66
2021/05/01 13:01:21;;;;;;;32.45;24.02;;;;;;;;;;5093730;28;20028;-66
2021/05/01 13:04:06;;;;;;;33.88;24.90;;;;;;;;;;5093342;28;20028;-66
2021/05/01 13:06:31;;;;;;;23.50;19.20;;;;;;;;;;5093315;28;20043;-66
2021/05/01 13:08:57;;;;;;;75.65;53.45;;;;;;;;;;5093530;28;20024;-66
2021/05/01 13:11:31;;;;;;;27.20;21.50;;;;;;;;;;5093903;28;20028;-66
2021/05/01 13:14:15;;;;;;;33.15;25.80;;;;;;;;;;5092207;28;20024;-66
2021/05/01 13:16:59;;;;;;;77.88;60.35;;;;;;;;;;5093530;28;20028;-66
2021/05/01 13:19:25;;;;;;;44.53;35.97;;;;;;;;;;5092651;28;20036;-65
2021/05/01 13:21:57;;;;;;;61.08;51.60;;;;;;;;;;5092201;28;20059;-66
2021/05/01 13:24:29;;;;;;;54.08;46.70;;;;;;;;;;5093395;28;20482;-67
2021/05/01 13:26:55;;;;;;;47.28;41.65;;;;;;;;;;5093355;28;20044;-66
2021/05/01 13:29:31;;;;;;;40.40;35.22;;;;;;;;;;5092164;28;20142;-65
2021/05/01 13:31:58;;;;;;;27.15;22.00;;;;;;;;;;5093560;28;20020;-65
2021/05/01 13:34:23;;;;;;;37.63;29.33;;;;;;;;;;5093293;28;20016;-67
2021/05/01 13:36:49;;;;;;;38.05;27.27;;;;;;;;;;5093151;28;20032;-67
2021/05/01 13:39:19;;;;;;;29.52;22.55;;;;;;;;;;5092086;28;20039;-66
2021/05/01 13:42:04;;;;;;;27.77;22.40;;;;;;;;;;5092923;28;20550;-67
2021/05/01 13:44:48;;;;;;;23.83;19.90;;;;;;;;;;5093085;28;20039;-67
2021/05/01 13:47:24;;;;;;;35.10;27.45;;;;;;;;;;5093172;28;20028;-67
2021/05/01 13:49:52;;;;;;;25.42;20.73;;;;;;;;;;5093008;28;20036;-67
2021/05/01 13:52:30;;;;;;;29.63;22.58;;;;;;;;;;5093272;28;20125;-67
2021/05/01 13:55:15;;;;;;;25.45;19.52;;;;;;;;;;5092233;28;20024;-67
2021/05/01 13:57:40;;;;;;;50.25;32.35;;;;;;;;;;5095226;28;20024;-66
2021/05/01 14:00:06;;;;;;;35.92;26.10;;;;;;;;;;5097088;28;20398;-66
2021/05/01 14:02:45;;;;;;;40.00;27.98;;;;;;;;;;5096931;28;20036;-67
2021/05/01 14:05:16;;;;;;;27.38;19.77;;;;;;;;;;5096747;28;20028;-66
2021/05/01 14:07:42;;;;;;;29.88;22.92;;;;;;;;;;5097178;28;20030;-67
2021/05/01 14:10:09;;;;;;;32.35;23.70;;;;;;;;;;5096654;28;20099;-66
2021/05/01 14:12:36;;;;;;;36.83;27.67;;;;;;;;;;5096693;28;20486;-67
2021/05/01 14:15:03;;;;;;;25.65;21.90;;;;;;;;;;5096882;28;20486;-66
2021/05/01 14:17:29;;;;;;;60.25;37.75;;;;;;;;;;5096787;28;20031;-66
2021/05/01 14:19:55;;;;;;;71.65;45.90;;;;;;;;;;5096810;28;20047;-66
2021/05/01 14:22:21;;;;;;;65.15;43.25;;;;;;;;;;5095496;28;20024;-67
2021/05/01 14:24:47;;;;;;;54.78;34.55;;;;;;;;;;5096480;28;20378;-66
2021/05/01 14:27:13;;;;;;;67.63;38.97;;;;;;;;;;5096416;28;20028;-67